Time;durP1;ratioP1;P1;durP2;ratioP2;P2;SDS_P1;SDS_P2;PMS_P1;PMS_P2;Temp;Humidity;BMP_temperature;BMP_pressure;BME280_temperature;BME280_humidity;BME280_pressure;Samples;Min_cycle;Max_cycle;Signal;HPM_P1;HPM_P2
2023/04/28 00:00:41;;;;;;;6.03;4.10;;;;;;;7.29;100.00;92836.88;2519139;23;20446;-84
2023/04/28 00:01:43;;;;;;;4.85;3.88;;;;;;;7.28;100.00;92837.25;2519219;23;20006;-85
2023/04/28 00:02:46;;;;;;;6.80;4.05;;;;;;;7.33;100.00;92836.78;2519250;23;20014;-84
2023/04/28 00:03:47;;;;;;;7.70;4.20;;;;;;;7.32;100.00;92837.97;2508058;23;20003;-83
2023/04/28 00:04:49;;;;;;;5.10;3.72;;;;;;;7.35;100.00;92841.72;2494778;23;20018;-83
2023/04/28 00:05:52;;;;;;;7.20;3.90;;;;;;;7.39;100.00;92842.44;2519086;23;20038;-84
2023/04/28 00:06:53;;;;;;;8.40;4.28;;;;;;;7.42;100.00;92836.28;2531706;23;20082;-84
2023/04/28 00:07:54;;;;;;;5.97;4.00;;;;;;;7.43;100.00;92843.16;2530994;23;20006;-83
2023/04/28 00:08:55;;;;;;;5.07;4.20;;;;;;;7.44;100.00;92842.72;2519382;23;20066;-84
2023/04/28 00:09:56;;;;;;;3.95;3.60;;;;;;;7.43;100.00;92843.88;2506815;23;20042;-84
2023/04/28 00:10:57;;;;;;;9.38;4.43;;;;;;;7.45;100.00;92841.56;2506802;23;20498;-84
2023/04/28 00:11:58;;;;;;;6.53;4.20;;;;;;;7.45;100.00;92841.56;2507353;23;20030;-84
2023/04/28 00:13:00;;;;;;;10.40;4.78;;;;;;;7.46;100.00;92837.00;2495412;23;20011;-84
2023/04/28 00:14:00;;;;;;;8.00;3.90;;;;;;;7.44;100.00;92839.31;2507054;23;20002;-83
2023/04/28 00:15:02;;;;;;;5.45;3.95;;;;;;;7.44;100.00;92842.72;2518805;23;20006;-84
2023/04/28 00:16:04;;;;;;;5.55;4.28;;;;;;;7.44;100.00;92836.66;2506535;23;19999;-84
2023/04/28 00:17:05;;;;;;;5.63;4.10;;;;;;;7.44;100.00;92834.00;2495551;23;20118;-82
2023/04/28 00:18:06;;;;;;;5.90;4.05;;;;;;;7.47;100.00;92830.56;2495101;23;20090;-83
2023/04/28 00:19:07;;;;;;;9.13;4.30;;;;;;;7.49;100.00;92836.22;2507406;23;20042;-84
2023/04/28 00:20:09;;;;;;;6.32;3.90;;;;;;;7.49;100.00;92833.53;2518608;23;20002;-83
2023/04/28 00:21:10;;;;;;;6.45;3.95;;;;;;;7.44;100.00;92834.75;2531366;23;20006;-84
2023/04/28 00:22:11;;;;;;;7.22;4.00;;;;;;;7.48;100.00;92835.47;2519040;23;20002;-83
2023/04/28 00:23:12;;;;;;;7.93;4.30;;;;;;;7.50;100.00;92827.06;2506458;23;20054;-84
2023/04/28 00:24:13;;;;;;;6.65;4.40;;;;;;;7.50;100.00;92832.38;2506582;23;20019;-82
2023/04/28 00:25:14;;;;;;;9.85;4.10;;;;;;;7.51;100.00;92824.03;2495418;23;20015;-84
2023/04/28 00:26:15;;;;;;;6.93;3.60;;;;;;;7.50;100.00;92822.50;2507280;23;20006;-83
2023/04/28 00:27:16;;;;;;;5.50;3.50;;;;;;;7.49;100.00;92817.59;2507547;23;20058;-83
2023/04/28 00:28:17;;;;;;;4.90;3.75;;;;;;;7.45;100.00;92825.63;2518191;23;20402;-84
2023/04/28 00:29:18;;;;;;;6.22;3.83;;;;;;;7.56;100.00;92820.16;2519071;23;20041;-84
2023/04/28 00:30:19;;;;;;;5.75;3.95;;;;;;;7.54;100.00;92817.88;2518619;23;20002;-83
2023/04/28 00:31:20;;;;;;;9.50;4.32;;;;;;;7.54;100.00;92825.09;2499204;23;20085;-83
2023/04/28 00:32:21;;;;;;;8.57;4.10;;;;;;;7.56;100.00;92820.91;2519366;23;20042;-85
2023/04/28 00:33:22;;;;;;;10.23;4.15;;;;;;;7.56;100.00;92823.56;2495219;23;20031;-84
2023/04/28 00:34:23;;;;;;;8.15;3.72;;;;;;;7.54;100.00;92819.78;2507164;23;20077;-84
2023/04/28 00:35:24;;;;;;;6.03;3.80;;;;;;;7.51;100.00;92818.69;2506915;23;20364;-85
2023/04/28 00:36:25;;;;;;;7.15;3.92;;;;;;;7.47;100.00;92817.25;2482979;23;20303;-85
2023/04/28 00:37:27;;;;;;;4.80;3.92;;;;;;;7.46;100.00;92819.16;2483834;23;20012;-85
2023/04/28 00:38:30;;;;;;;5.80;4.10;;;;;;;7.47;100.00;92803.97;2506763;23;20007;-84
2023/04/28 00:39:31;;;;;;;6.75;4.28;;;;;;;7.53;100.00;92802.34;2506955;23;20014;-84
2023/04/28 00:40:37;;;;;;;7.07;4.32;;;;;;;7.50;100.00;92809.19;2507112;23;20011;-83
2023/04/28 00:41:40;;;;;;;6.80;4.18;;;;;;;7.51;100.00;92805.41;2495271;23;20007;-83
2023/04/28 00:42:41;;;;;;;8.18;4.00;;;;;;;7.45;100.00;92804.34;2495231;23;20085;-83
2023/04/28 00:43:49;;;;;;;7.47;4.57;;;;;;;7.50;100.00;92803.88;2494364;23;20019;-83
2023/04/28 00:44:51;;;;;;;8.65;4.15;;;;;;;7.54;100.00;92801.91;2486465;23;20023;-85
2023/04/28 00:45:52;;;;;;;7.68;4.38;;;;;;;7.50;100.00;92800.47;2495457;23;20003;-83
2023/04/28 00:46:53;;;;;;;6.40;3.92;;;;;;;7.54;100.00;92801.19;2494510;23;20007;-84
2023/04/28 00:47:55;;;;;;;5.97;4.10;;;;;;;7.52;100.00;92796.25;2495114;23;20015;-83
2023/04/28 00:48:56;;;;;;;5.03;3.70;;;;;;;7.58;100.00;92793.88;2495121;23;20007;-84
2023/04/28 00:49:59;;;;;;;6.90;4.20;;;;;;;7.57;100.00;92795.06;2507586;23;20021;-84
2023/04/28 00:51:01;;;;;;;4.85;3.97;;;;;;;7.53;100.00;92787.13;2507162;23;20403;-85
2023/04/28 00:52:05;;;;;;;6.43;4.07;;;;;;;7.54;100.00;92793.19;2484644;23;20007;-84
2023/04/28 00:53:06;;;;;;;6.13;4.20;;;;;;;7.50;100.00;92798.56;2508404;23;20010;-84
2023/04/28 00:54:12;;;;;;;9.23;3.95;;;;;;;7.54;100.00;92796.59;2518259;23;20236;-83
2023/04/28 00:55:15;;;;;;;7.32;3.90;;;;;;;7.53;100.00;92789.78;2495192;23;20014;-84
2023/04/28 00:56:18;;;;;;;4.90;3.80;;;;;;;7.48;100.00;92795.56;2496040;23;20011;-83
2023/04/28 00:57:19;;;;;;;8.45;4.10;;;;;;;7.48;100.00;92790.25;2495496;23;20011;-84
2023/04/28 00:58:21;;;;;;;7.15;4.07;;;;;;;7.49;100.00;92788.34;2483529;23;20453;-84
2023/04/28 00:59:22;;;;;;;7.85;4.15;;;;;;;7.46;100.00;92791.78;2494829;23;20364;-83
2023/04/28 01:00:23;;;;;;;4.57;3.83;;;;;;;7.46;100.00;92795.22;2506627;23;20334;-84
2023/04/28 01:01:25;;;;;;;6.82;3.97;;;;;;;7.45;100.00;92795.63;2507084;23;20701;-84
2023/04/28 01:02:29;;;;;;;12.43;4.53;;;;;;;7.48;100.00;92789.50;2506735;23;20007;-84
2023/04/28 01:03:36;;;;;;;12.05;4.00;;;;;;;7.49;100.00;92783.78;2507332;23;20090;-84
2023/04/28 01:04:37;;;;;;;5.10;4.05;;;;;;;7.47;100.00;92785.34;2506690;23;20454;-84
2023/04/28 01:05:38;;;;;;;5.47;4.00;;;;;;;7.46;100.00;92781.94;2506546;23;20011;-83
2023/04/28 01:06:41;;;;;;;6.63;4.10;;;;;;;7.46;100.00;92779.28;2495068;23;20423;-83
2023/04/28 01:07:42;;;;;;;8.15;4.43;;;;;;;7.48;100.00;92776.94;2495230;23;20347;-84
2023/04/28 01:08:47;;;;;;;9.13;4.63;;;;;;;7.47;100.00;92774.72;2483280;23;20014;-83
2023/04/28 01:09:48;;;;;;;7.65;4.15;;;;;;;7.46;100.00;92771.28;2495666;23;20007;-84
2023/04/28 01:10:49;;;;;;;6.32;4.60;;;;;;;7.44;100.00;92773.59;2483484;23;20007;-84
2023/04/28 01:11:50;;;;;;;10.27;4.28;;;;;;;7.48;100.00;92776.94;2483066;23;20035;-82
2023/04/28 01:12:53;;;;;;;6.72;4.22;;;;;;;7.51;100.00;92778.06;2483450;23;20424;-85
2023/04/28 01:13:56;;;;;;;8.40;4.38;;;;;;;7.50;100.00;92779.94;2484002;23;20004;-84
2023/04/28 01:14:57;;;;;;;4.72;3.72;;;;;;;7.52;100.00;92785.63;2494834;23;20022;-83
2023/04/28 01:15:58;;;;;;;7.78;4.38;;;;;;;7.54;100.00;92779.91;2494753;23;20011;-83
2023/04/28 01:17:02;;;;;;;6.68;3.90;;;;;;;7.54;100.00;92778.00;2506160;23;20007;-83
2023/04/28 01:18:05;;;;;;;8.23;4.57;;;;;;;7.54;100.00;92782.56;2506912;23;20031;-84
2023/04/28 01:19:24;;;;;;;7.78;4.07;;;;;;;7.54;100.00;92777.25;2495352;23;20394;-84
2023/04/28 01:20:27;;;;;;;8.95;4.57;;;;;;;7.56;100.00;92774.94;2490258;23;20038;-84
2023/04/28 01:21:31;;;;;;;6.47;4.22;;;;;;;7.55;100.00;92771.53;2495332;23;20014;-84
2023/04/28 01:22:32;;;;;;;6.38;4.50;;;;;;;7.46;100.00;92771.28;2495366;23;20007;-83
2023/04/28 01:23:33;;;;;;;6.72;4.30;;;;;;;7.50;100.00;92774.63;2482955;23;20036;-85
2023/04/28 01:24:34;;;;;;;8.73;4.70;;;;;;;7.56;100.00;92772.28;2494779;23;20066;-84
2023/04/28 01:25:35;;;;;;;6.63;4.50;;;;;;;7.56;100.00;92775.69;2495010;23;20042;-83
2023/04/28 01:26:37;;;;;;;7.15;4.57;;;;;;;7.59;100.00;92776.78;2494898;23;20018;-84
2023/04/28 01:27:38;;;;;;;6.72;4.25;;;;;;;7.69;100.00;92772.47;2483592;23;20019;-85
2023/04/28 01:28:39;;;;;;;9.18;4.40;;;;;;;7.72;100.00;92771.63;2482596;23;20003;-85
2023/04/28 01:29:41;;;;;;;8.13;4.55;;;;;;;7.70;100.00;92772.03;2483103;23;20110;-83
2023/04/28 01:30:42;;;;;;;8.82;4.35;;;;;;;7.96;100.00;92775.78;2494176;23;20024;-84
2023/04/28 01:31:43;;;;;;;6.55;3.88;;;;;;;7.85;100.00;92785.09;2514601;23;20406;-85
2023/04/28 01:32:45;;;;;;;7.20;4.45;;;;;;;7.74;100.00;92769.34;2518897;23;20367;-85
2023/04/28 01:33:53;;;;;;;5.97;4.40;;;;;;;7.74;100.00;92779.97;2518618;23;20010;-85
2023/04/28 01:34:54;;;;;;;4.90;4.28;;;;;;;7.72;100.00;92779.59;2497923;23;20508;-85
2023/04/28 01:35:58;;;;;;;5.63;4.40;;;;;;;7.69;100.00;92783.09;2506964;23;20586;-83
2023/04/28 01:36:59;;;;;;;6.88;4.43;;;;;;;7.64;100.00;92776.34;2518487;23;20078;-83
2023/04/28 01:38:01;;;;;;;6.78;4.20;;;;;;;7.77;100.00;92784.47;2518462;23;20061;-83
2023/04/28 01:39:02;;;;;;;5.00;4.35;;;;;;;7.94;100.00;92782.66;2518992;23;20011;-84
2023/04/28 01:40:04;;;;;;;6.00;4.40;;;;;;;7.90;100.00;92790.72;2518614;23;20002;-83
2023/04/28 01:41:05;;;;;;;7.93;4.40;;;;;;;7.87;100.00;92788.88;2530667;23;20446;-84
2023/04/28 01:42:06;;;;;;;6.63;4.18;;;;;;;7.74;100.00;92783.38;2518910;23;20033;-84
2023/04/28 01:43:08;;;;;;;5.22;4.10;;;;;;;7.72;100.00;92790.25;2494436;23;20015;-82
2023/04/28 01:44:09;;;;;;;6.75;4.25;;;;;;;7.69;100.00;92789.16;2494986;23;20003;-83
2023/04/28 01:45:10;;;;;;;7.35;4.10;;;;;;;7.68;100.00;92787.66;2494883;23;20007;-83
2023/04/28 01:46:11;;;;;;;5.75;4.30;;;;;;;7.68;100.00;92792.22;2518710;23;20061;-84
2023/04/28 01:47:12;;;;;;;6.90;4.20;;;;;;;7.68;100.00;92800.19;2519006;23;20010;-85
2023/04/28 01:48:13;;;;;;;7.45;4.22;;;;;;;7.65;100.00;92793.78;2518877;23;20006;-84
2023/04/28 01:49:14;;;;;;;7.85;4.45;;;;;;;7.65;100.00;92796.44;2517880;23;20013;-84
2023/04/28 01:50:16;;;;;;;8.35;4.18;;;;;;;7.65;100.00;92793.03;2494539;23;20015;-84
2023/04/28 01:51:17;;;;;;;5.55;3.80;;;;;;;7.66;100.00;92792.63;2518629;23;20334;-84
2023/04/28 01:52:21;;;;;;;7.45;4.25;;;;;;;7.65;100.00;92799.09;2519128;23;20034;-83
2023/04/28 01:53:23;;;;;;;8.40;4.43;;;;;;;7.67;100.00;92796.78;2519344;23;20009;-84
2023/04/28 01:54:26;;;;;;;7.60;4.60;;;;;;;7.67;100.00;92799.44;2506713;23;20482;-84
2023/04/28 01:55:27;;;;;;;8.80;4.60;;;;;;;7.70;100.00;92795.22;2495282;23;20772;-84
2023/04/28 01:56:30;;;;;;;7.53;4.68;;;;;;;7.65;100.00;92801.03;2494510;23;20087;-83
2023/04/28 01:57:34;;;;;;;6.88;5.05;;;;;;;7.62;100.00;92801.81;2495215;23;20086;-86
2023/04/28 01:58:35;;;;;;;7.28;4.65;;;;;;;7.63;100.00;92793.44;2507752;23;20013;-85
2023/04/28 01:59:36;;;;;;;8.52;5.28;;;;;;;7.62;100.00;92791.94;2518345;23;20334;-85
2023/04/28 02:00:37;;;;;;;6.55;4.65;;;;;;;7.62;100.00;92802.56;2505837;23;20014;-84
2023/04/28 02:01:40;;;;;;;6.07;4.70;;;;;;;7.62;100.00;92801.81;2506222;23;20566;-83
2023/04/28 02:02:41;;;;;;;7.93;4.95;;;;;;;7.62;100.00;92797.25;2506610;23;20014;-85
2023/04/28 02:03:42;;;;;;;10.48;5.13;;;;;;;7.65;100.00;92798.38;2506753;23;19999;-85
2023/04/28 02:04:44;;;;;;;8.00;4.78;;;;;;;7.61;100.00;92798.41;2506490;23;20017;-83
2023/04/28 02:05:45;;;;;;;6.93;4.80;;;;;;;7.63;100.00;92795.34;2494949;23;20067;-82
2023/04/28 02:06:46;;;;;;;7.47;4.80;;;;;;;7.57;100.00;92795.81;2505661;23;20561;-83
2023/04/28 02:07:47;;;;;;;7.93;4.68;;;;;;;7.55;100.00;92798.13;2517957;23;20017;-83
2023/04/28 02:08:48;;;;;;;7.70;4.32;;;;;;;7.54;100.00;92799.25;2506142;23;20086;-84
2023/04/28 02:09:49;;;;;;;14.95;4.63;;;;;;;7.52;100.00;92796.25;2506465;23;20011;-84
2023/04/28 02:10:51;;;;;;;12.20;4.47;;;;;;;7.54;100.00;92798.50;2506326;23;20490;-84
2023/04/28 02:11:54;;;;;;;8.25;4.50;;;;;;;7.57;100.00;92793.16;2506603;23;20042;-83
2023/04/28 02:12:55;;;;;;;9.00;5.00;;;;;;;7.61;100.00;92797.66;2518335;23;20058;-82
2023/04/28 02:13:56;;;;;;;8.90;4.82;;;;;;;7.56;100.00;92799.63;2505875;23;20050;-83
2023/04/28 02:14:58;;;;;;;8.35;4.82;;;;;;;7.52;100.00;92798.94;2494017;23;20013;-82
2023/04/28 02:16:01;;;;;;;5.40;4.55;;;;;;;7.54;100.00;92795.84;2506771;23;20450;-82
2023/04/28 02:17:04;;;;;;;6.70;4.55;;;;;;;7.53;100.00;92803.09;2506307;23;20007;-82
2023/04/28 02:18:05;;;;;;;9.23;4.88;;;;;;;7.56;100.00;92804.94;2495516;23;20369;-82
2023/04/28 02:31:08;;;;;;;;;;;;;;;7.45;100.00;92795.63;2623791;21;20084;-82
2023/04/28 02:32:09;;;;;;;14.80;6.78;;;;;;;7.48;100.00;92800.13;2582898;23;19982;-82
2023/04/28 02:33:10;;;;;;;14.95;6.53;;;;;;;7.47;100.00;92788.75;2571005;22;20036;-81
2023/04/28 02:34:11;;;;;;;13.35;6.50;;;;;;;7.49;100.00;92786.44;2571208;23;20011;-82
2023/04/28 02:35:12;;;;;;;14.25;7.03;;;;;;;7.51;100.00;92794.78;2558296;23;20416;-81
2023/04/28 02:36:13;;;;;;;9.60;5.53;;;;;;;7.51;100.00;92789.44;2559023;23;20005;-81
2023/04/28 02:37:14;;;;;;;11.63;5.65;;;;;;;7.53;100.00;92789.03;2557765;23;20221;-82
2023/04/28 02:38:15;;;;;;;15.07;6.40;;;;;;;7.55;100.00;92792.03;2558058;23;20670;-82
2023/04/28 02:39:16;;;;;;;10.98;5.55;;;;;;;7.55;100.00;92789.38;2558996;23;20215;-81
2023/04/28 02:40:17;;;;;;;10.60;5.47;;;;;;;7.54;100.00;92788.63;2558292;23;20008;-82
2023/04/28 02:41:18;;;;;;;6.22;4.95;;;;;;;7.54;100.00;92782.56;2583689;22;20003;-81
2023/04/28 02:42:19;;;;;;;8.60;5.35;;;;;;;7.55;100.00;92784.06;2582618;23;20004;-81
2023/04/28 02:43:20;;;;;;;8.90;5.22;;;;;;;7.55;100.00;92784.06;2570629;23;20008;-82
2023/04/28 02:44:22;;;;;;;9.50;5.25;;;;;;;7.62;100.00;92791.19;2570482;23;20078;-82
2023/04/28 02:45:23;;;;;;;9.65;5.63;;;;;;;7.70;100.00;92779.28;2570575;23;20032;-82
2023/04/28 02:46:24;;;;;;;8.90;5.30;;;;;;;7.72;100.00;92788.34;2570855;23;20012;-82
2023/04/28 02:47:25;;;;;;;9.23;5.35;;;;;;;7.70;100.00;92785.34;2571089;23;20000;-82
2023/04/28 02:48:26;;;;;;;7.90;5.10;;;;;;;7.68;100.00;92784.22;2583191;23;20426;-82
2023/04/28 02:49:27;;;;;;;9.07;5.15;;;;;;;7.67;100.00;92788.81;2570957;22;20095;-82
2023/04/28 02:50:28;;;;;;;10.40;5.60;;;;;;;7.64;100.00;92776.34;2582583;23;20462;-81
2023/04/28 02:51:30;;;;;;;9.20;5.57;;;;;;;7.65;100.00;92787.72;2558642;23;20501;-82
2023/04/28 02:52:30;;;;;;;9.10;5.63;;;;;;;7.62;100.00;92780.53;2570679;22;20008;-81
2023/04/28 02:53:31;;;;;;;8.98;4.90;;;;;;;7.62;100.00;92773.31;2570592;23;20004;-81
2023/04/28 02:54:34;;;;;;;7.25;5.65;;;;;;;7.62;100.00;92780.53;2571219;23;20032;-81
2023/04/28 02:55:35;;;;;;;11.45;5.20;;;;;;;7.57;100.00;92777.19;2571212;23;20243;-81
2023/04/28 02:56:36;;;;;;;8.65;5.50;;;;;;;7.54;100.00;92778.00;2582965;22;20473;-81
2023/04/28 02:57:37;;;;;;;14.85;5.88;;;;;;;7.51;100.00;92778.06;2570999;23;20031;-81
2023/04/28 02:58:38;;;;;;;10.38;5.53;;;;;;;7.60;100.00;92772.97;2558218;23;20009;-81
2023/04/28 02:59:38;;;;;;;11.13;5.30;;;;;;;7.60;100.00;92780.22;2558560;23;20230;-81
2023/04/28 03:00:39;;;;;;;9.30;5.75;;;;;;;7.54;100.00;92774.56;2558049;23;20000;-81
2023/04/28 03:01:40;;;;;;;14.45;5.53;;;;;;;7.52;100.00;92771.59;2570739;23;20007;-82
2023/04/28 03:02:41;;;;;;;10.48;5.65;;;;;;;7.52;100.00;92768.91;2596450;22;20008;-82
2023/04/28 03:03:42;;;;;;;8.77;5.45;;;;;;;7.52;100.00;92768.91;2569415;23;20474;-81
2023/04/28 03:04:43;;;;;;;12.13;6.30;;;;;;;7.56;100.00;92765.06;2558346;23;20000;-81
2023/04/28 03:05:44;;;;;;;10.38;6.13;;;;;;;7.55;100.00;92768.88;2558548;23;20416;-82
2023/04/28 03:06:46;;;;;;;10.30;5.75;;;;;;;7.55;100.00;92770.75;2570931;23;20051;-82
2023/04/28 03:07:47;;;;;;;9.70;5.57;;;;;;;7.55;100.00;92768.09;2571334;22;20005;-82
2023/04/28 03:08:48;;;;;;;14.23;5.63;;;;;;;7.50;100.00;92769.31;2582681;23;20008;-82
2023/04/28 03:09:49;;;;;;;14.55;6.07;;;;;;;7.52;100.00;92767.00;2571115;23;20019;-82
2023/04/28 03:10:50;;;;;;;14.52;6.53;;;;;;;7.48;100.00;92757.59;2557787;23;20000;-82
2023/04/28 03:11:51;;;;;;;12.98;5.75;;;;;;;7.47;100.00;92766.72;2558520;23;20092;-82
2023/04/28 03:12:52;;;;;;;13.65;6.55;;;;;;;7.47;100.00;92770.13;2558909;23;20008;-82
2023/04/28 03:13:53;;;;;;;16.92;6.00;;;;;;;7.48;100.00;92771.63;2570908;23;20004;-82
2023/04/28 03:14:54;;;;;;;9.50;6.00;;;;;;;7.47;100.00;92775.47;2570464;23;20268;-82
2023/04/28 03:15:55;;;;;;;8.15;5.85;;;;;;;7.48;100.00;92773.53;2570827;23;20091;-82
2023/04/28 03:16:57;;;;;;;9.30;6.13;;;;;;;7.50;100.00;92768.56;2570327;22;20004;-81
2023/04/28 03:17:58;;;;;;;18.15;6.65;;;;;;;7.51;100.00;92767.44;2583194;22;20011;-82
2023/04/28 03:19:01;;;;;;;9.63;6.10;;;;;;;7.54;100.00;92774.56;2583024;23;20040;-82
2023/04/28 03:20:03;;;;;;;11.43;6.20;;;;;;;7.56;100.00;92773.03;2583546;23;20007;-82
2023/04/28 03:21:05;;;;;;;8.32;6.03;;;;;;;7.57;100.00;92763.13;2558322;23;20440;-82
2023/04/28 03:22:06;;;;;;;9.23;5.95;;;;;;;7.58;100.00;92770.69;2570234;22;20020;-82
2023/04/28 03:23:07;;;;;;;11.48;6.80;;;;;;;7.56;100.00;92765.06;2583800;22;20015;-81
2023/04/28 03:24:08;;;;;;;9.70;6.32;;;;;;;7.55;100.00;92760.13;2582813;23;20007;-82
2023/04/28 03:25:10;;;;;;;13.77;7.10;;;;;;;7.52;100.00;92764.34;2570851;23;20000;-82
2023/04/28 03:26:11;;;;;;;10.38;6.50;;;;;;;7.62;100.00;92767.25;2570781;22;20472;-81
2023/04/28 03:27:12;;;;;;;9.75;6.18;;;;;;;7.74;100.00;92764.75;2595837;22;20474;-82
2023/04/28 03:28:13;;;;;;;10.77;6.22;;;;;;;7.80;100.00;92767.69;2582700;23;20047;-82
2023/04/28 03:29:15;;;;;;;9.77;6.07;;;;;;;7.73;100.00;92765.91;2570157;23;20008;-82
2023/04/28 03:30:16;;;;;;;15.30;6.53;;;;;;;7.70;100.00;92763.31;2557952;23;20079;-81
2023/04/28 03:31:17;;;;;;;15.85;7.10;;;;;;;7.64;100.00;92757.72;2570222;23;20094;-82
2023/04/28 03:32:19;;;;;;;11.25;6.40;;;;;;;7.61;100.00;92757.78;2555243;23;20088;-81
2023/04/28 03:33:22;;;;;;;13.13;7.45;;;;;;;7.58;100.00;92760.06;2568194;22;20336;-82
2023/04/28 03:34:23;;;;;;;16.77;6.60;;;;;;;7.61;100.00;92760.44;2567205;23;20070;-82
2023/04/28 03:35:25;;;;;;;11.18;6.70;;;;;;;7.59;100.00;92752.84;2554915;23;20011;-82
2023/04/28 03:36:26;;;;;;;85.50;50.63;;;;;;;7.60;100.00;92754.34;2568726;22;20137;-81
2023/04/28 03:37:27;;;;;;;52.25;36.38;;;;;;;7.62;100.00;92754.69;2580702;22;20012;-81
2023/04/28 03:38:28;;;;;;;84.00;74.57;;;;;;;7.72;100.00;92750.34;2580819;23;20004;-81
2023/04/28 03:39:29;;;;;;;38.42;33.88;;;;;;;7.76;100.00;92748.38;2579753;23;20008;-81
2023/04/28 03:40:30;;;;;;;40.78;37.17;;;;;;;7.74;100.00;92748.78;2567208;22;20009;-81
2023/04/28 03:41:31;;;;;;;17.38;15.50;;;;;;;7.69;100.00;92751.19;2567324;23;20381;-81
2023/04/28 03:42:32;;;;;;;13.65;10.77;;;;;;;7.71;100.00;92760.25;2568061;22;20035;-82
2023/04/28 03:43:36;;;;;;;14.95;9.85;;;;;;;7.69;100.00;92743.19;2568083;23;20000;-82
2023/04/28 03:44:37;;;;;;;11.77;8.55;;;;;;;7.69;100.00;92749.25;2568491;23;20000;-82
2023/04/28 03:45:39;;;;;;;11.50;7.50;;;;;;;7.65;100.00;92745.16;2555074;23;20036;-81
2023/04/28 03:46:40;;;;;;;17.70;8.32;;;;;;;7.64;100.00;92749.75;2568318;22;20000;-81
2023/04/28 03:47:41;;;;;;;11.50;7.70;;;;;;;7.65;100.00;92748.56;2568145;23;20011;-82
2023/04/28 03:48:42;;;;;;;15.30;8.10;;;;;;;7.64;100.00;92740.97;2568467;23;20000;-82
2023/04/28 03:49:42;;;;;;;14.23;8.13;;;;;;;7.66;100.00;92738.69;2580556;22;20008;-81
2023/04/28 03:50:44;;;;;;;15.75;8.52;;;;;;;7.63;100.00;92736.81;2580368;23;20070;-82
2023/04/28 03:51:45;;;;;;;12.93;8.18;;;;;;;7.63;100.00;92737.56;2567530;23;20015;-82
2023/04/28 03:52:46;;;;;;;11.60;8.00;;;;;;;7.64;100.00;92739.09;2567543;22;20004;-81
2023/04/28 03:53:47;;;;;;;13.35;8.38;;;;;;;7.67;100.00;92734.84;2593249;22;20221;-82
2023/04/28 03:54:48;;;;;;;24.08;8.75;;;;;;;7.68;100.00;92737.13;2580590;23;20046;-81
2023/04/28 03:55:49;;;;;;;12.55;8.85;;;;;;;7.68;100.00;92728.38;2567767;22;20005;-82
2023/04/28 03:56:50;;;;;;;15.85;8.63;;;;;;;7.69;100.00;92735.97;2568502;23;20012;-81
2023/04/28 03:57:51;;;;;;;14.43;8.63;;;;;;;7.67;100.00;92734.84;2567150;23;20031;-82
2023/04/28 03:58:52;;;;;;;12.00;8.20;;;;;;;7.71;100.00;92732.88;2567241;23;20004;-81
2023/04/28 03:59:53;;;;;;;19.23;8.48;;;;;;;7.70;100.00;92732.13;2555711;23;20008;-82
2023/04/28 04:00:54;;;;;;;17.73;9.20;;;;;;;7.78;100.00;92732.78;2558138;23;20009;-82
2023/04/28 04:01:55;;;;;;;19.85;9.48;;;;;;;7.76;100.00;92727.09;2567938;23;20035;-81
2023/04/28 04:02:57;;;;;;;17.63;9.38;;;;;;;7.73;100.00;92730.59;2567917;23;20091;-81
2023/04/28 04:03:59;;;;;;;17.13;8.90;;;;;;;7.71;100.00;92727.56;2567808;22;20403;-82
2023/04/28 04:05:00;;;;;;;17.92;9.52;;;;;;;7.83;100.00;92729.63;2567871;23;20310;-81
2023/04/28 04:06:02;;;;;;;14.38;8.43;;;;;;;7.81;100.00;92726.63;2566930;22;20425;-81
2023/04/28 04:07:03;;;;;;;16.05;9.80;;;;;;;7.81;100.00;92726.63;2567682;23;20327;-82
2023/04/28 04:08:04;;;;;;;11.90;9.27;;;;;;;7.73;100.00;92723.34;2567825;23;20087;-81
2023/04/28 04:09:05;;;;;;;13.80;9.82;;;;;;;7.74;100.00;92719.53;2567824;23;20001;-81
2023/04/28 04:10:08;;;;;;;16.90;9.23;;;;;;;7.73;100.00;92722.59;2555599;23;20001;-81
2023/04/28 04:11:09;;;;;;;16.83;9.18;;;;;;;7.75;100.00;92720.28;2551880;23;20009;-81
2023/04/28 04:12:10;;;;;;;15.40;9.80;;;;;;;7.76;100.00;92714.53;2559736;22;20000;-81
2023/04/28 04:13:11;;;;;;;16.63;10.15;;;;;;;7.79;100.00;92720.97;2560647;23;20005;-82
2023/04/28 04:14:12;;;;;;;18.48;9.00;;;;;;;7.80;100.00;92717.91;2550307;23;20385;-81
2023/04/28 04:15:14;;;;;;;16.38;11.68;;;;;;;7.83;100.00;92719.75;2551021;23;20411;-81
2023/04/28 04:16:15;;;;;;;18.80;10.30;;;;;;;7.86;100.00;92715.53;2562234;22;20008;-81
2023/04/28 04:17:16;;;;;;;20.65;9.73;;;;;;;7.84;100.00;92715.19;2559849;23;20010;-81
2023/04/28 04:18:17;;;;;;;16.60;9.32;;;;;;;7.79;100.00;92713.00;2551194;23;20032;-81
2023/04/28 04:19:18;;;;;;;20.15;9.80;;;;;;;7.73;100.00;92714.63;2563903;22;20577;-81
2023/04/28 04:20:19;;;;;;;17.05;9.40;;;;;;;7.74;100.00;92716.13;2576388;23;20004;-81
2023/04/28 04:21:20;;;;;;;13.27;8.35;;;;;;;7.72;100.00;92713.84;2551429;23;20237;-81
2023/04/28 04:22:21;;;;;;;16.10;9.00;;;;;;;7.74;100.00;92716.13;2550311;23;20012;-81
2023/04/28 04:23:22;;;;;;;17.05;9.07;;;;;;;7.78;100.00;92709.56;2563258;23;20574;-82
2023/04/28 04:24:23;;;;;;;14.75;8.65;;;;;;;7.76;100.00;92705.81;2562789;23;20001;-81
2023/04/28 04:25:24;;;;;;;15.80;9.27;;;;;;;7.78;100.00;92706.16;2564266;23;20008;-81
2023/04/28 04:26:25;;;;;;;18.60;9.85;;;;;;;7.84;100.00;92712.50;2563545;23;20009;-82
2023/04/28 04:27:26;;;;;;;18.80;10.50;;;;;;;7.82;100.00;92712.94;2564020;23;20296;-80
2023/04/28 04:28:27;;;;;;;13.38;9.43;;;;;;;7.81;100.00;92713.31;2564501;22;20424;-81
2023/04/28 04:29:28;;;;;;;13.43;9.25;;;;;;;7.80;100.00;92711.81;2563632;23;20058;-81
2023/04/28 04:30:29;;;;;;;17.10;10.07;;;;;;;7.83;100.00;92716.34;2563595;22;20000;-81
2023/04/28 04:31:30;;;;;;;18.23;8.93;;;;;;;7.86;100.00;92701.44;2576201;23;20134;-81
2023/04/28 04:32:31;;;;;;;15.38;9.80;;;;;;;7.82;100.00;92704.94;2576050;22;20214;-81
2023/04/28 04:33:33;;;;;;;18.52;12.20;;;;;;;7.93;100.00;92709.31;2576951;23;20004;-82
2023/04/28 04:34:34;;;;;;;18.23;10.32;;;;;;;7.87;100.00;92711.72;2576809;22;20004;-81
2023/04/28 04:35:35;;;;;;;15.45;9.73;;;;;;;7.83;100.00;92713.69;2562306;23;20063;-81
2023/04/28 04:36:38;;;;;;;16.17;10.07;;;;;;;7.82;100.00;92704.94;2564078;23;20005;-81
2023/04/28 04:37:42;;;;;;;16.80;10.27;;;;;;;7.85;100.00;92702.63;2564181;23;20008;-81
2023/04/28 04:38:43;;;;;;;20.55;9.68;;;;;;;7.87;100.00;92703.72;2553670;23;20120;-81
2023/04/28 04:39:44;;;;;;;19.60;10.77;;;;;;;7.82;100.00;92704.94;2551829;23;20005;-81
2023/04/28 04:40:45;;;;;;;12.32;9.13;;;;;;;7.81;100.00;92705.34;2564256;22;20066;-82
2023/04/28 04:41:46;;;;;;;15.80;9.65;;;;;;;7.88;100.00;92709.78;2576432;23;20031;-81
2023/04/28 04:42:47;;;;;;;19.73;9.48;;;;;;;7.97;100.00;92705.44;2576096;23;20062;-83
2023/04/28 04:43:48;;;;;;;16.05;11.13;;;;;;;7.93;100.00;92702.09;2576443;22;20014;-81
2023/04/28 04:44:49;;;;;;;16.88;9.38;;;;;;;7.94;100.00;92703.56;2576767;22;20012;-82
2023/04/28 04:45:50;;;;;;;15.88;9.88;;;;;;;7.97;100.00;92705.44;2577188;23;20734;-82
2023/04/28 04:46:51;;;;;;;14.38;9.75;;;;;;;7.98;100.00;92711.50;2564016;23;20467;-82
2023/04/28 04:47:52;;;;;;;16.00;9.70;;;;;;;7.93;100.00;92715.38;2563650;23;20012;-83
2023/04/28 04:48:53;;;;;;;17.63;9.63;;;;;;;7.97;100.00;92712.66;2577214;22;20008;-82
2023/04/28 04:49:55;;;;;;;16.00;9.75;;;;;;;7.91;100.00;92714.31;2564187;23;20039;-83
2023/04/28 04:50:56;;;;;;;17.40;10.00;;;;;;;7.91;100.00;92725.69;2551929;23;20408;-82
2023/04/28 04:51:58;;;;;;;17.55;10.00;;;;;;;7.99;100.00;92718.31;2563824;22;20036;-82
2023/04/28 04:52:59;;;;;;;16.40;9.75;;;;;;;8.01;100.00;92721.34;2576726;22;20430;-83
2023/04/28 04:54:00;;;;;;;17.33;9.95;;;;;;;7.94;100.00;92713.47;2576134;23;20439;-81
2023/04/28 04:55:03;;;;;;;16.55;10.23;;;;;;;7.94;100.00;92708.91;2576657;22;20011;-84
2023/04/28 04:56:04;;;;;;;14.73;9.52;;;;;;;8.03;100.00;92727.00;2564215;23;20016;-82
2023/04/28 04:57:06;;;;;;;14.68;9.82;;;;;;;8.08;100.00;92723.88;2552245;23;20016;-82
2023/04/28 04:58:07;;;;;;;15.23;9.48;;;;;;;8.01;100.00;92724.75;2552412;23;20013;-82
2023/04/28 04:59:08;;;;;;;15.13;9.23;;;;;;;8.01;100.00;92716.75;2551279;23;20388;-82
2023/04/28 05:00:12;;;;;;;14.45;9.07;;;;;;;8.01;100.00;92722.09;2563885;23;20009;-82